Terminal Aerodrome Forecast
Issued by NWS Omaha/Valley, NE

Home | Current Version | Previous Version | Text Only | Print | Product List | Glossary On
Versions: 1 2 3 4 5 6 7 8 9 10 11 12 13 14 15 16 17 18 19 20 21 22 23 24 25 26 27 28 29 30 31 32 33 34 35 36 37 38
000
FTUS43 KOAX 181120
TAFLNK
TAF
KLNK 181120Z 1812/1912 17005KT 4SM BR OVC005
      TEMPO 1812/1814 1SM BR OVC002
     FM181600 14009KT P6SM SCT015 BKN120
     FM181800 14012KT P6SM FEW035 SCT120
     FM190000 14008KT P6SM SCT040 SCT250=

USA.gov is the U.S. government's official web portal to all federal, state and local government web resources and services.